Main page
METAR-TAF:

METAR-TAF

Airports :

Jaipur International Airport

Jaipur, India

latitude: 26-49N, longitude: 075-48E, elevation: 385 m

Current weather observation

The report was made 24 minutes ago, at 14:30 UTC
Wind 3 kt from the East
Temperature 28°C
Humidity 51%
Pressure 1014 hPa
Visibility: 3000 m
Few clouds at a height of 3500 ft
haze

METAR: VIJP 181430Z 09003KT 3000 HZ FEW035 28/17 Q1014 NOSIG

Time: 20:24 (14:54 UTC)

Forecast

The report was made 54 minutes ago, at 14:00 UTC
Forecast valid from 18 at 15 UTC to 18 at 24 UTC
Wind 3 kt from variable directions
Visibility: 2000 m
Few clouds at a height of 3500 ft
smoke

TAF: VIJP 181400Z 1815/1824 VRB03KT 2000 FU FEW035

Weather observations and forecasts of more than 4000 airports (METAR and TAF reports).

The available stations are represented by yellow and red dots on the map.

Hover mouse over dot to see the name of the station.

Then click to see weather observations and forecasts.

To change the map : click on the green buttons with a black cross to zoom in, on the green button with a dash to zoom out, or on the green arrows for adjacent maps.


METAR-TAF: